Time;durP1;ratioP1;P1;durP2;ratioP2;P2;SDS_P1;SDS_P2;PMS_P1;PMS_P2;Temp;Humidity;BMP_temperature;BMP_pressure;BME280_temperature;BME280_humidity;BME280_pressure;Samples;Min_cycle;Max_cycle;Signal;HPM_P1;HPM_P2
2021/07/23 00:01:30;240417.00;0.80;415.47;12057.00;0.04;21.51;;;;;22.50;1.00;;;;;;2272906;61;1130;-90
2021/07/23 00:03:57;157605.00;0.53;272.91;0.00;0.00;0.62;;;;;22.30;1.00;;;;;;2272854;61;1722;-92
2021/07/23 00:06:24;89135.00;0.30;154.81;0.00;0.00;0.62;;;;;22.10;1.00;;;;;;2272836;61;1649;-91
2021/07/23 00:08:51;234579.00;0.78;405.43;35086.00;0.12;61.39;;;;;22.00;1.00;;;;;;2272835;61;1928;-90
2021/07/23 00:11:19;332330.00;1.11;573.49;0.00;0.00;0.62;;;;;22.00;1.00;;;;;;2272853;61;1708;-90
2021/07/23 00:13:47;215941.00;0.72;373.36;0.00;0.00;0.62;;;;;22.20;1.00;;;;;;2272883;61;1004;-91
2021/07/23 00:16:14;252181.00;0.84;435.70;36724.00;0.12;64.22;;;;;22.40;1.00;;;;;;2272863;61;1208;-91
2021/07/23 00:18:41;189621.00;0.63;328.06;0.00;0.00;0.62;;;;;22.40;1.00;;;;;;2272838;61;1414;-91
2021/07/23 00:21:08;241835.00;0.81;417.91;0.00;0.00;0.62;;;;;22.50;1.00;;;;;;2272838;61;1003;-91
2021/07/23 00:23:35;288719.00;0.96;498.53;56972.00;0.19;99.24;;;;;22.80;1.00;;;;;;2272854;61;879;-91
2021/07/23 00:26:02;133320.00;0.44;231.05;0.00;0.00;0.62;;;;;23.20;1.00;;;;;;2272830;61;988;-92
2021/07/23 00:28:30;178054.00;0.59;308.14;0.00;0.00;0.62;;;;;23.40;1.00;;;;;;2272782;61;2001;-91
2021/07/23 00:30:57;123958.00;0.41;214.91;0.00;0.00;0.62;;;;;23.20;1.00;;;;;;2272797;61;1572;-91
2021/07/23 00:33:24;283635.00;0.95;489.79;0.00;0.00;0.62;;;;;22.90;1.00;;;;;;2272822;61;930;-91
2021/07/23 00:35:51;463724.00;1.55;799.39;40282.00;0.13;70.38;;;;;22.70;1.00;;;;;;2272810;61;1015;-91
2021/07/23 00:38:18;203897.00;0.68;352.63;0.00;0.00;0.62;;;;;22.60;1.00;;;;;;2272734;61;1309;-90
2021/07/23 00:40:45;275834.00;0.92;476.37;0.00;0.00;0.62;;;;;22.60;1.00;;;;;;2272786;61;1010;-92
2021/07/23 00:43:12;361630.00;1.21;623.85;47150.00;0.16;82.26;;;;;22.80;1.00;;;;;;2272726;61;1787;-92
2021/07/23 00:45:40;186686.00;0.62;323.00;0.00;0.00;0.62;;;;;22.80;1.00;;;;;;2272776;61;993;-91
2021/07/23 00:48:07;283489.00;0.94;489.54;0.00;0.00;0.62;;;;;22.70;1.00;;;;;;2272705;61;1990;-91
2021/07/23 00:50:34;191043.00;0.64;330.50;0.00;0.00;0.62;;;;;22.50;1.00;;;;;;2272732;61;938;-90
2021/07/23 00:53:04;313583.00;1.05;541.27;0.00;0.00;0.62;;;;;22.50;1.00;;;;;;2272682;61;1594;-91
2021/07/23 00:55:31;458769.00;1.53;790.87;46880.00;0.16;81.79;;;;;22.50;1.00;;;;;;2272663;61;1695;-91
2021/07/23 00:58:00;256769.00;0.86;443.59;86103.00;0.29;149.58;;;;;22.40;1.00;;;;;;2272694;61;1450;-92
2021/07/23 01:00:28;260994.00;0.87;450.86;51880.00;0.17;90.44;;;;;22.20;1.00;;;;;;2272726;61;1091;-91
2021/07/23 01:02:56;131462.00;0.44;227.85;0.00;0.00;0.62;;;;;22.20;1.00;;;;;;2272663;61;1130;-91
2021/07/23 01:05:24;218921.00;0.73;378.49;0.00;0.00;0.62;;;;;22.20;1.00;;;;;;2272590;61;1699;-93
2021/07/23 01:07:51;332555.00;1.11;573.88;21818.00;0.07;38.42;;;;;22.20;1.00;;;;;;2272604;61;1912;-91
2021/07/23 01:10:18;784577.00;2.62;1354.24;81315.00;0.27;141.31;;;;;22.20;1.00;;;;;;2272646;61;1560;-90
2021/07/23 01:12:45;532947.00;1.78;918.57;99790.00;0.33;173.21;;;;;22.20;1.00;;;;;;2272662;61;992;-91
2021/07/23 01:15:12;146744.00;0.49;254.20;0.00;0.00;0.62;;;;;22.00;1.00;;;;;;2272659;61;979;-90
2021/07/23 01:17:41;189635.00;0.63;328.08;0.00;0.00;0.62;;;;;22.00;1.00;;;;;;2272677;61;1439;-90
2021/07/23 01:20:17;180456.00;0.60;312.27;0.00;0.00;0.62;;;;;21.80;1.00;;;;;;2272689;61;1014;-92
2021/07/23 01:22:44;291147.00;0.97;502.70;0.00;0.00;0.62;;;;;22.00;1.00;;;;;;2272615;61;1791;-90
2021/07/23 01:25:14;222111.00;0.74;383.98;0.00;0.00;0.62;;;;;22.00;1.00;;;;;;2272632;61;958;-91
2021/07/23 01:27:45;80423.00;0.27;139.77;0.00;0.00;0.62;;;;;21.90;1.00;;;;;;2272547;61;1998;-92
2021/07/23 01:30:14;322777.00;1.08;557.07;98522.00;0.33;171.02;;;;;21.80;1.00;;;;;;2272579;61;1358;-91
2021/07/23 01:32:41;423176.00;1.41;729.65;132943.00;0.44;230.40;;;;;21.90;1.00;;;;;;2272597;61;1127;-92
2021/07/23 01:35:10;240082.00;0.80;414.89;73882.00;0.25;128.47;;;;;22.10;1.00;;;;;;2272596;61;1033;-90
2021/07/23 01:37:37;267007.00;0.89;461.20;70117.00;0.23;121.96;;;;;22.20;1.00;;;;;;2272502;61;1735;-90
2021/07/23 01:40:06;301191.00;1.00;519.97;99789.00;0.33;173.21;;;;;21.90;1.00;;;;;;2272591;61;1007;-91
2021/07/23 01:42:37;405250.00;1.35;698.83;67616.00;0.23;117.64;;;;;21.90;1.00;;;;;;2272549;61;1757;-91
2021/07/23 01:45:05;212245.00;0.71;367.00;71970.00;0.24;125.16;;;;;22.10;1.00;;;;;;2272590;61;1030;-90
2021/07/23 01:47:32;391971.00;1.31;676.00;82123.00;0.27;142.70;;;;;22.00;1.00;;;;;;2272501;61;2002;-91
2021/07/23 01:49:59;235172.00;0.78;406.45;38797.00;0.13;67.81;;;;;22.10;1.00;;;;;;2272542;61;997;-92
2021/07/23 01:52:26;321385.00;1.07;554.68;74422.00;0.25;129.40;;;;;22.20;1.00;;;;;;2272500;61;1736;-91
2021/07/23 01:54:53;267449.00;0.89;461.96;84330.00;0.28;146.52;;;;;22.20;1.00;;;;;;2272538;61;1139;-92
2021/07/23 01:57:20;383255.00;1.28;661.02;125641.00;0.42;217.81;;;;;22.00;1.00;;;;;;2272433;61;1280;-92
2021/07/23 01:59:48;342200.00;1.14;590.45;52412.00;0.17;91.36;;;;;22.00;1.00;;;;;;2272548;61;999;-90
2021/07/23 02:02:15;229257.00;0.76;396.27;76076.00;0.25;132.26;;;;;22.10;1.00;;;;;;2272516;61;1075;-91
2021/07/23 02:04:42;819116.00;2.73;1414.48;112720.00;0.38;195.52;;;;;22.10;1.00;;;;;;2272549;61;930;-92
2021/07/23 02:07:09;232943.00;0.78;402.61;55653.00;0.19;96.96;;;;;22.10;1.00;;;;;;2272427;61;2008;-90
2021/07/23 02:09:36;365682.00;1.22;630.81;70544.00;0.24;122.70;;;;;22.20;1.00;;;;;;2272474;61;996;-92
2021/07/23 02:12:04;275443.00;0.92;475.70;64600.00;0.22;112.43;;;;;22.20;1.00;;;;;;2272446;61;1752;-90
2021/07/23 02:14:31;205054.00;0.68;354.62;70702.00;0.24;122.97;;;;;21.80;1.00;;;;;;2272425;61;1086;-90
2021/07/23 02:16:59;188445.00;0.63;326.03;0.00;0.00;0.62;;;;;21.70;1.00;;;;;;2272380;61;1679;-90
2021/07/23 02:19:26;273277.00;0.91;471.98;0.00;0.00;0.62;;;;;21.70;1.00;;;;;;2272401;61;1734;-91
2021/07/23 02:21:53;277178.00;0.92;478.69;0.00;0.00;0.62;;;;;21.60;1.00;;;;;;2272489;61;987;-91
2021/07/23 02:24:20;217532.00;0.73;376.10;0.00;0.00;0.62;;;;;21.80;1.00;;;;;;2272480;61;978;-91
2021/07/23 02:26:47;195248.00;0.65;337.74;0.00;0.00;0.62;;;;;21.90;1.00;;;;;;2272406;61;1643;-91
2021/07/23 02:29:14;86891.00;0.29;150.94;0.00;0.00;0.62;;;;;21.90;1.00;;;;;;2272380;61;1931;-91
2021/07/23 02:31:41;133512.00;0.45;231.39;0.00;0.00;0.62;;;;;22.00;1.00;;;;;;2272458;61;1015;-90
2021/07/23 02:34:09;341452.00;1.14;589.17;0.00;0.00;0.62;;;;;22.00;1.00;;;;;;2272383;61;1579;-93
2021/07/23 02:36:36;216869.00;0.72;374.96;0.00;0.00;0.62;;;;;21.70;1.00;;;;;;2272382;61;1604;-92
2021/07/23 02:39:03;136533.00;0.46;236.59;0.00;0.00;0.62;;;;;22.00;1.00;;;;;;2272409;61;1388;-91
2021/07/23 02:41:30;33196.00;0.11;58.11;0.00;0.00;0.62;;;;;22.00;1.00;;;;;;2272418;61;1056;-91
2021/07/23 02:43:57;136139.00;0.45;235.91;0.00;0.00;0.62;;;;;21.90;1.00;;;;;;2272470;61;882;-91
2021/07/23 02:46:24;311382.00;1.04;537.48;0.00;0.00;0.62;;;;;21.90;1.00;;;;;;2272451;61;995;-92
2021/07/23 02:48:51;243146.00;0.81;420.16;0.00;0.00;0.62;;;;;22.10;1.00;;;;;;2272263;61;2018;-91
2021/07/23 02:51:19;268961.00;0.90;464.56;0.00;0.00;0.62;;;;;22.00;1.00;;;;;;2272365;61;1031;-91
2021/07/23 02:53:46;142336.00;0.47;246.60;0.00;0.00;0.62;;;;;22.00;1.00;;;;;;2272395;61;991;-91
2021/07/23 02:56:13;454030.00;1.51;782.71;51813.00;0.17;90.32;;;;;21.80;1.00;;;;;;2272345;61;1016;-92
2021/07/23 02:58:42;223212.00;0.74;385.87;0.00;0.00;0.62;;;;;21.80;1.00;;;;;;2272344;61;1485;-90
2021/07/23 03:01:09;268610.00;0.90;463.95;60130.00;0.20;104.70;;;;;21.80;1.00;;;;;;2272360;61;1063;-91
2021/07/23 03:03:36;335949.00;1.12;579.71;78249.00;0.26;136.01;;;;;21.90;1.00;;;;;;2272342;61;1052;-92
2021/07/23 03:06:03;310183.00;1.03;535.42;43232.00;0.14;75.48;;;;;22.20;1.00;;;;;;2272367;61;1034;-92
2021/07/23 03:08:32;245552.00;0.82;424.30;67166.00;0.22;116.86;;;;;22.40;1.00;;;;;;2272248;61;1996;-90
2021/07/23 03:10:59;361005.00;1.20;622.78;68416.00;0.23;119.02;;;;;22.40;1.00;;;;;;2272388;61;1006;-91
2021/07/23 03:13:26;624486.00;2.08;1076.52;132204.00;0.44;229.13;;;;;21.90;1.00;;;;;;2272268;61;1013;-90
2021/07/23 03:15:53;422726.00;1.41;728.88;66304.00;0.22;115.37;;;;;21.60;1.00;;;;;;2272287;61;923;-90
2021/07/23 03:18:19;297992.00;0.99;514.47;76059.00;0.25;132.23;;;;;21.60;1.00;;;;;;2272277;61;1409;-92
2021/07/23 03:20:46;511287.00;1.70;881.26;123340.00;0.41;213.84;;;;;21.80;1.00;;;;;;2272267;61;928;-91
2021/07/23 03:23:13;395901.00;1.32;682.76;77667.00;0.26;135.01;;;;;21.80;1.00;;;;;;2272286;61;1129;-91
2021/07/23 03:25:42;260840.00;0.87;450.59;71680.00;0.24;124.66;;;;;21.80;1.00;;;;;;2272276;61;1121;-90
2021/07/23 03:28:08;333335.00;1.11;575.22;74631.00;0.25;129.76;;;;;21.70;1.00;;;;;;2272747;61;2010;-91
2021/07/23 03:30:37;263411.00;0.88;455.01;69317.00;0.23;120.58;;;;;21.70;1.00;;;;;;2272991;61;1071;-91
2021/07/23 03:33:04;233901.00;0.78;404.26;64056.00;0.21;111.49;;;;;21.90;1.00;;;;;;2272931;61;1705;-92
2021/07/23 03:35:31;248477.00;0.83;429.33;75795.00;0.25;131.77;;;;;21.70;1.00;;;;;;2272944;61;989;-90
2021/07/23 03:37:58;298049.00;0.99;514.57;60702.00;0.20;105.69;;;;;21.60;1.00;;;;;;2272966;61;1391;-91
2021/07/23 03:40:25;393531.00;1.31;678.68;80144.00;0.27;139.29;;;;;21.60;1.00;;;;;;2272842;61;1763;-90
2021/07/23 03:42:54;375531.00;1.25;647.74;67563.00;0.23;117.55;;;;;21.40;1.00;;;;;;2272964;61;961;-92
2021/07/23 03:45:21;955946.00;3.19;1654.60;248201.00;0.83;428.86;;;;;21.10;1.00;;;;;;2272914;61;1736;-90
2021/07/23 03:47:48;586237.00;1.95;1010.46;51706.00;0.17;90.14;;;;;21.10;1.00;;;;;;2272839;61;2012;-90
2021/07/23 03:50:15;366437.00;1.22;632.11;78858.00;0.26;137.06;;;;;20.90;1.00;;;;;;2272969;61;976;-90
2021/07/23 03:52:42;301443.00;1.00;520.40;82069.00;0.27;142.61;;;;;20.80;1.00;;;;;;2272938;61;925;-90
2021/07/23 03:55:12;1262830.00;4.21;2204.24;252855.00;0.84;436.86;;;;;20.90;1.00;;;;;;2272951;61;993;-90
2021/07/23 03:57:40;454525.00;1.52;783.57;98466.00;0.33;170.92;;;;;20.80;1.00;;;;;;2272862;61;1389;-91
2021/07/23 04:00:10;428713.00;1.43;739.17;76859.00;0.26;133.61;;;;;20.70;1.00;;;;;;2272879;61;906;-91
2021/07/23 04:02:37;373603.00;1.25;644.43;69098.00;0.23;120.20;;;;;20.20;1.00;;;;;;2272966;61;1008;-91
2021/07/23 04:05:05;478441.00;1.59;824.71;116057.00;0.39;201.28;;;;;20.10;1.00;;;;;;2272845;61;1755;-92
2021/07/23 04:07:33;584937.00;1.95;1008.22;69443.00;0.23;120.80;;;;;20.00;1.00;;;;;;2272906;61;1399;-91
2021/07/23 04:10:01;703571.00;2.35;1213.43;110497.00;0.37;191.69;;;;;20.00;1.00;;;;;;2272566;61;1919;-91
2021/07/23 04:12:28;501146.00;1.67;863.80;120449.00;0.40;208.86;;;;;20.10;1.00;;;;;;2272875;61;1256;-91
2021/07/23 04:14:55;384579.00;1.28;663.30;73824.00;0.25;128.37;;;;;20.30;1.00;;;;;;2272815;61;1736;-91
2021/07/23 04:17:23;478883.00;1.60;825.48;68780.00;0.23;119.65;;;;;20.30;1.00;;;;;;2272849;61;1378;-91
2021/07/23 04:19:50;497398.00;1.66;857.34;73436.00;0.24;127.70;;;;;20.30;1.00;;;;;;2272825;61;1095;-90
2021/07/23 04:22:17;446700.00;1.49;770.11;74804.00;0.25;130.06;;;;;20.30;1.00;;;;;;2272834;61;1022;-90
2021/07/23 04:24:45;559274.00;1.86;963.95;75896.00;0.25;131.95;;;;;20.00;1.00;;;;;;2272825;61;1004;-91
2021/07/23 04:27:13;503718.00;1.68;868.23;86664.00;0.29;150.55;;;;;20.40;1.00;;;;;;2272826;61;1367;-90
2021/07/23 04:29:40;246874.00;0.82;426.57;69941.00;0.23;121.66;;;;;20.70;1.00;;;;;;2272753;61;1994;-91
2021/07/23 04:32:07;427709.00;1.43;737.45;61548.00;0.21;107.15;;;;;20.80;1.00;;;;;;2272797;61;1565;-90
2021/07/23 04:34:36;471314.00;1.57;812.45;81188.00;0.27;141.09;;;;;21.00;1.00;;;;;;2272816;61;1111;-91
2021/07/23 04:37:03;580952.00;1.94;1001.34;151115.00;0.50;261.73;;;;;20.80;1.00;;;;;;2272729;61;1487;-91
2021/07/23 04:39:30;301161.00;1.00;519.92;67672.00;0.23;117.74;;;;;20.80;1.00;;;;;;2272703;61;1146;-93
2021/07/23 04:41:58;358023.00;1.19;617.65;73216.00;0.24;127.32;;;;;20.90;1.00;;;;;;2272785;61;1115;-91
2021/07/23 04:44:24;427000.00;1.42;736.23;73212.00;0.24;127.31;;;;;21.00;1.00;;;;;;2272791;61;1111;-90
2021/07/23 04:46:51;323508.00;1.08;558.33;72031.00;0.24;125.27;;;;;21.00;1.00;;;;;;2272656;61;1003;-89
2021/07/23 04:49:18;509199.00;1.70;877.66;71077.00;0.24;123.62;;;;;21.00;1.00;;;;;;2272715;61;1911;-91
2021/07/23 04:51:46;353712.00;1.18;610.24;74175.00;0.25;128.97;;;;;20.80;1.00;;;;;;2272757;61;903;-92
2021/07/23 04:54:13;348820.00;1.16;601.83;73954.00;0.25;128.59;;;;;20.90;1.00;;;;;;2272712;61;1016;-91
2021/07/23 04:56:40;399018.00;1.33;688.12;67746.00;0.23;117.87;;;;;20.80;1.00;;;;;;2272709;61;1177;-90
2021/07/23 04:59:07;383694.00;1.28;661.77;67824.00;0.23;118.00;;;;;21.00;1.00;;;;;;2272666;61;1384;-90
2021/07/23 05:01:34;363155.00;1.21;626.47;49558.00;0.17;86.42;;;;;20.90;1.00;;;;;;2272701;61;965;-91
2021/07/23 05:04:02;654016.00;2.18;1127.58;99867.00;0.33;173.34;;;;;21.10;1.00;;;;;;2272762;61;1167;-92
2021/07/23 05:06:29;379216.00;1.26;654.08;65679.00;0.22;114.29;;;;;21.40;1.00;;;;;;2272635;61;1650;-91
2021/07/23 05:08:57;403518.00;1.35;695.85;69500.00;0.23;120.90;;;;;21.80;1.00;;;;;;2272671;61;1998;-92
2021/07/23 05:11:24;395182.00;1.32;681.52;92651.00;0.31;160.89;;;;;22.00;1.00;;;;;;2272672;61;919;-93
2021/07/23 05:13:52;301499.00;1.00;520.50;60470.00;0.20;105.29;;;;;22.40;1.00;;;;;;2272690;61;1004;-91
2021/07/23 05:16:19;391197.00;1.30;674.67;81129.00;0.27;140.99;;;;;22.90;1.00;;;;;;2272525;61;1729;-89
2021/07/23 05:18:47;381840.00;1.27;658.59;73471.00;0.24;127.76;;;;;23.00;1.00;;;;;;2272522;61;1297;-91
2021/07/23 05:21:14;247229.00;0.82;427.19;80540.00;0.27;139.97;;;;;23.00;1.00;;;;;;2272585;61;985;-90
2021/07/23 05:23:42;299497.00;1.00;517.06;62719.00;0.21;109.18;;;;;23.00;1.00;;;;;;2272520;61;1011;-92
2021/07/23 05:26:11;562525.00;1.88;969.55;107632.00;0.36;186.74;;;;;22.90;1.00;;;;;;2272557;61;1329;-92
2021/07/23 05:28:38;320884.00;1.07;553.82;71702.00;0.24;124.70;;;;;22.60;1.00;;;;;;2272450;61;1931;-90
2021/07/23 05:31:05;213832.00;0.71;369.73;67143.00;0.22;116.82;;;;;22.40;1.00;;;;;;2272531;61;1072;-90
2021/07/23 05:33:32;506493.00;1.69;873.00;80231.00;0.27;139.44;;;;;22.40;1.00;;;;;;2272418;61;935;-91
2021/07/23 05:35:59;442034.00;1.47;762.08;72628.00;0.24;126.30;;;;;22.50;1.00;;;;;;2272517;61;1120;-93
2021/07/23 05:38:26;340633.00;1.14;587.76;60311.00;0.20;105.01;;;;;22.70;1.00;;;;;;2272393;61;1788;-91
2021/07/23 05:40:53;287447.00;0.96;496.34;71624.00;0.24;124.57;;;;;23.30;1.00;;;;;;2272581;61;1196;-92
2021/07/23 05:43:21;438520.00;1.46;756.04;52470.00;0.17;91.46;;;;;23.70;1.00;;;;;;2272534;61;1088;-90
2021/07/23 05:45:48;363687.00;1.21;627.39;58142.00;0.19;101.26;;;;;23.40;1.00;;;;;;2272541;61;1159;-92
2021/07/23 05:48:15;340762.00;1.14;587.98;56440.00;0.19;98.32;;;;;24.10;1.00;;;;;;2272380;61;2002;-89
2021/07/23 05:50:42;476979.00;1.59;822.20;90773.00;0.30;157.64;;;;;25.40;1.00;;;;;;2272319;61;1115;-92
2021/07/23 05:53:12;609604.00;2.03;1050.81;98507.00;0.33;170.99;;;;;26.70;1.00;;;;;;2272534;61;938;-92
2021/07/23 05:55:39;271466.00;0.90;468.86;70918.00;0.24;123.35;;;;;27.40;1.00;;;;;;2272555;61;966;-90
2021/07/23 05:58:06;357696.00;1.19;617.09;106932.00;0.36;185.54;;;;;27.90;1.00;;;;;;2272356;61;1422;-92
2021/07/23 06:00:35;318911.00;1.06;550.43;45840.00;0.15;79.99;;;;;28.40;1.00;;;;;;2272391;61;1621;-93
2021/07/23 06:13:17;1442772.00;4.81;2535.89;65472.00;0.22;113.94;;;;;31.60;1.00;;;;;;2273966;61;1295;-91
2021/07/23 06:15:45;530228.00;1.77;913.88;61246.00;0.20;106.63;;;;;31.50;1.00;;;;;;2272381;61;958;-92
2021/07/23 06:20:41;803348.00;2.68;1386.96;0.00;0.00;0.62;;;;;32.50;1.00;;;;;;2274056;61;1446;-90
2021/07/23 06:25:43;1106384.00;3.69;1921.84;0.00;0.00;0.62;;;;;33.50;1.00;;;;;;2274117;61;1314;-91
2021/07/23 06:28:10;282998.00;0.94;488.69;0.00;0.00;0.62;;;;;33.70;1.00;;;;;;2272331;61;1328;-91
2021/07/23 06:30:38;369336.00;1.23;637.10;0.00;0.00;0.62;;;;;33.20;1.00;;;;;;2267695;61;1942;-90
2021/07/23 06:33:06;271375.00;0.90;468.71;0.00;0.00;0.62;;;;;33.60;1.00;;;;;;2259662;61;975;-93
2021/07/23 06:35:33;684152.00;2.28;1179.77;104826.00;0.35;181.90;;;;;34.00;1.00;;;;;;2251680;61;1035;-90
2021/07/23 06:38:00;286048.00;0.95;493.94;0.00;0.00;0.62;;;;;33.70;1.00;;;;;;2248362;61;1371;-90
2021/07/23 06:40:27;346746.00;1.16;598.27;0.00;0.00;0.62;;;;;33.60;1.00;;;;;;2251481;61;1095;-89
2021/07/23 06:42:54;545221.00;1.82;939.72;36792.00;0.12;64.34;;;;;33.80;1.00;;;;;;2251696;61;999;-93
2021/07/23 06:45:21;541314.00;1.80;932.99;0.00;0.00;0.62;;;;;33.90;1.00;;;;;;2251428;61;1718;-91
2021/07/23 09:26:07;193787.00;0.65;335.23;0.00;0.00;0.62;;;;;34.00;1.00;;;;;;2429054;55;3214;31
2021/07/23 09:43:00;236611.00;0.79;408.92;68447.00;0.23;119.08;;;;;33.00;1.00;;;;;;2514717;40;3444;31
2021/07/23 10:34:01;405504.00;1.35;699.27;129584.00;0.43;224.61;;;;;30.60;1.00;;;;;;2274557;61;914;-92
2021/07/23 10:39:09;215554.00;0.72;372.69;59671.00;0.20;103.91;;;;;30.40;1.00;;;;;;2274993;61;1164;-91
2021/07/23 10:44:55;113022.00;0.38;196.04;7395.00;0.02;13.44;;;;;30.90;1.00;;;;;;2275055;61;1355;-90
2021/07/23 11:45:53;168593.00;0.56;291.84;63602.00;0.21;110.70;;;;;30.90;1.00;;;;;;2271064;61;905;-90
2021/07/23 12:08:39;237702.00;0.79;410.80;65778.00;0.22;114.46;;;;;31.00;1.00;;;;;;2271370;61;921;-90
2021/07/23 12:46:42;98861.00;0.33;171.61;0.00;0.00;0.62;;;;;30.40;1.00;;;;;;2424072;55;3219;31
2021/07/23 16:43:26;209122.00;0.70;361.62;0.00;0.00;0.62;;;;;30.90;1.00;;;;;;2270790;61;956;-89
